sensor_id;sensor_type;location;lat;lon;timestamp;pressure;altitude;pressure_sealevel;temperature;humidity
1926;BME280;964;42.606;23.588;2022-11-20T00:00:19;93837.75;;;27.05;38.41
1926;BME280;964;42.606;23.588;2022-11-20T00:02:46;93816.66;;;27.35;36.97
1926;BME280;964;42.606;23.588;2022-11-20T00:05:13;93812.94;;;28.13;35.93
1926;BME280;964;42.606;23.588;2022-11-20T00:07:39;93811.84;;;28.56;34.68
1926;BME280;964;42.606;23.588;2022-11-20T00:10:07;93830.97;;;27.15;36.88
1926;BME280;964;42.606;23.588;2022-11-20T00:12:33;93822.56;;;29.22;33.98
1926;BME280;964;42.606;23.588;2022-11-20T00:15:00;93835.94;;;28.84;34.44
1926;BME280;964;42.606;23.588;2022-11-20T00:17:29;93818.50;;;27.43;36.43
1926;BME280;964;42.606;23.588;2022-11-20T00:19:55;93832.00;;;27.93;35.67
1926;BME280;964;42.606;23.588;2022-11-20T00:22:22;93827.81;;;28.63;34.76
1926;BME280;964;42.606;23.588;2022-11-20T00:24:49;93831.66;;;28.51;34.91
1926;BME280;964;42.606;23.588;2022-11-20T00:27:15;93827.38;;;29.02;34.13
1926;BME280;964;42.606;23.588;2022-11-20T00:29:42;93817.59;;;27.66;36.21
1926;BME280;964;42.606;23.588;2022-11-20T00:32:09;93814.69;;;26.86;37.83
1926;BME280;964;42.606;23.588;2022-11-20T00:34:37;93817.16;;;26.69;38.26
1926;BME280;964;42.606;23.588;2022-11-20T00:37:03;93813.88;;;25.82;40.05
1926;BME280;964;42.606;23.588;2022-11-20T00:39:30;93824.25;;;24.62;41.97
1926;BME280;964;42.606;23.588;2022-11-20T00:41:57;93825.47;;;25.35;40.49
1926;BME280;964;42.606;23.588;2022-11-20T00:44:23;93826.56;;;25.76;39.81
1926;BME280;964;42.606;23.588;2022-11-20T00:46:50;93821.44;;;26.31;38.65
1926;BME280;964;42.606;23.588;2022-11-20T00:49:17;93807.25;;;25.98;38.50
1926;BME280;964;42.606;23.588;2022-11-20T00:51:45;93816.56;;;26.21;38.13
1926;BME280;964;42.606;23.588;2022-11-20T00:54:11;93812.06;;;26.76;36.94
1926;BME280;964;42.606;23.588;2022-11-20T00:56:38;93813.31;;;26.31;37.36
1926;BME280;964;42.606;23.588;2022-11-20T00:59:05;93809.81;;;26.60;37.30
1926;BME280;964;42.606;23.588;2022-11-20T01:01:32;93801.78;;;26.22;38.30
1926;BME280;964;42.606;23.588;2022-11-20T01:03:59;93809.00;;;26.25;38.33
1926;BME280;964;42.606;23.588;2022-11-20T01:06:28;93804.03;;;26.38;38.25
1926;BME280;964;42.606;23.588;2022-11-20T01:08:58;93825.50;;;25.98;39.45
1926;BME280;964;42.606;23.588;2022-11-20T01:11:26;93828.88;;;25.93;40.77
1926;BME280;964;42.606;23.588;2022-11-20T01:13:54;93829.91;;;25.24;41.78
1926;BME280;964;42.606;23.588;2022-11-20T01:16:22;93825.72;;;25.14;42.48
1926;BME280;964;42.606;23.588;2022-11-20T01:18:51;93821.97;;;27.09;38.51
1926;BME280;964;42.606;23.588;2022-11-20T01:21:20;93803.47;;;26.49;38.76
1926;BME280;964;42.606;23.588;2022-11-20T01:23:47;93817.66;;;26.14;39.50
1926;BME280;964;42.606;23.588;2022-11-20T01:26:17;93806.97;;;27.89;36.43
1926;BME280;964;42.606;23.588;2022-11-20T01:28:44;93786.66;;;28.36;35.42
1926;BME280;964;42.606;23.588;2022-11-20T01:31:13;93787.91;;;27.48;37.33
1926;BME280;964;42.606;23.588;2022-11-20T01:33:41;93786.78;;;27.40;37.48
1926;BME280;964;42.606;23.588;2022-11-20T01:36:09;93767.28;;;26.87;38.49
1926;BME280;964;42.606;23.588;2022-11-20T01:38:36;93782.44;;;25.52;40.92
1926;BME280;964;42.606;23.588;2022-11-20T01:41:04;93759.47;;;25.77;41.10
1926;BME280;964;42.606;23.588;2022-11-20T01:43:32;93759.03;;;27.16;38.12
1926;BME280;964;42.606;23.588;2022-11-20T01:46:02;93754.97;;;27.66;37.60
1926;BME280;964;42.606;23.588;2022-11-20T01:48:33;93774.81;;;26.33;39.70
1926;BME280;964;42.606;23.588;2022-11-20T01:51:04;93753.59;;;27.36;37.85
1926;BME280;964;42.606;23.588;2022-11-20T01:53:33;93751.00;;;26.43;39.36
1926;BME280;964;42.606;23.588;2022-11-20T01:56:08;93748.00;;;26.11;40.31
1926;BME280;964;42.606;23.588;2022-11-20T01:58:41;93770.25;;;25.24;41.35
1926;BME280;964;42.606;23.588;2022-11-20T02:01:10;93765.34;;;24.71;42.23
1926;BME280;964;42.606;23.588;2022-11-20T02:03:37;93758.03;;;24.96;41.45
1926;BME280;964;42.606;23.588;2022-11-20T02:06:07;93768.31;;;25.15;41.35
1926;BME280;964;42.606;23.588;2022-11-20T02:08:37;93757.75;;;25.41;40.52
1926;BME280;964;42.606;23.588;2022-11-20T02:11:04;93759.41;;;26.01;39.69
1926;BME280;964;42.606;23.588;2022-11-20T02:13:31;93750.97;;;25.22;40.75
1926;BME280;964;42.606;23.588;2022-11-20T02:16:14;93748.09;;;26.17;39.10
1926;BME280;964;42.606;23.588;2022-11-20T02:18:41;93748.16;;;27.36;36.80
1926;BME280;964;42.606;23.588;2022-11-20T02:21:16;93736.53;;;27.56;36.67
1926;BME280;964;42.606;23.588;2022-11-20T02:24:06;93755.91;;;27.23;36.83
1926;BME280;964;42.606;23.588;2022-11-20T02:26:38;93743.94;;;27.35;36.16
1926;BME280;964;42.606;23.588;2022-11-20T02:29:06;93759.97;;;27.33;36.46
1926;BME280;964;42.606;23.588;2022-11-20T02:31:38;93757.50;;;26.80;36.85
1926;BME280;964;42.606;23.588;2022-11-20T02:34:06;93756.63;;;26.24;37.75
1926;BME280;964;42.606;23.588;2022-11-20T02:36:34;93754.19;;;26.12;38.16
1926;BME280;964;42.606;23.588;2022-11-20T02:39:02;93751.66;;;25.94;38.13
1926;BME280;964;42.606;23.588;2022-11-20T02:41:37;93752.06;;;26.80;36.82
1926;BME280;964;42.606;23.588;2022-11-20T02:44:04;93757.50;;;26.80;36.64
1926;BME280;964;42.606;23.588;2022-11-20T02:46:32;93765.91;;;25.79;38.35
1926;BME280;964;42.606;23.588;2022-11-20T02:48:59;93752.69;;;26.11;36.41
1926;BME280;964;42.606;23.588;2022-11-20T02:51:26;93758.47;;;27.47;35.45
1926;BME280;964;42.606;23.588;2022-11-20T02:53:53;93756.19;;;27.65;34.59
1926;BME280;964;42.606;23.588;2022-11-20T02:56:20;93765.97;;;27.98;34.59
1926;BME280;964;42.606;23.588;2022-11-20T02:58:48;93768.00;;;27.57;34.52
1926;BME280;964;42.606;23.588;2022-11-20T03:01:14;93766.72;;;28.24;33.08
1926;BME280;964;42.606;23.588;2022-11-20T03:03:41;93795.34;;;28.34;33.20
1926;BME280;964;42.606;23.588;2022-11-20T03:06:08;93776.38;;;28.51;32.11
1926;BME280;964;42.606;23.588;2022-11-20T03:08:34;93800.78;;;28.34;32.71
1926;BME280;964;42.606;23.588;2022-11-20T03:11:03;93785.50;;;29.05;31.65
1926;BME280;964;42.606;23.588;2022-11-20T03:13:32;93809.47;;;29.27;31.28
1926;BME280;964;42.606;23.588;2022-11-20T03:16:05;93820.00;;;28.51;31.66
1926;BME280;964;42.606;23.588;2022-11-20T03:18:32;93816.81;;;29.15;29.18
1926;BME280;964;42.606;23.588;2022-11-20T03:20:59;93812.88;;;30.23;28.33
1926;BME280;964;42.606;23.588;2022-11-20T03:23:26;93816.59;;;29.61;28.82
1926;BME280;964;42.606;23.588;2022-11-20T03:25:54;93811.81;;;30.04;27.64
1926;BME280;964;42.606;23.588;2022-11-20T03:28:21;93806.50;;;30.93;26.88
1926;BME280;964;42.606;23.588;2022-11-20T03:30:48;93796.47;;;31.45;27.07
1926;BME280;964;42.606;23.588;2022-11-20T03:33:16;93809.72;;;30.91;27.03
1926;BME280;964;42.606;23.588;2022-11-20T03:35:42;93811.75;;;31.07;27.14
1926;BME280;964;42.606;23.588;2022-11-20T03:38:09;93806.06;;;29.85;27.73
1926;BME280;964;42.606;23.588;2022-11-20T03:40:36;93835.75;;;30.20;28.25
1926;BME280;964;42.606;23.588;2022-11-20T03:43:02;93830.63;;;31.17;27.01
1926;BME280;964;42.606;23.588;2022-11-20T03:45:29;93812.94;;;31.23;27.02
1926;BME280;964;42.606;23.588;2022-11-20T03:47:56;93819.69;;;31.05;27.30
1926;BME280;964;42.606;23.588;2022-11-20T03:50:24;93820.38;;;31.50;27.19
1926;BME280;964;42.606;23.588;2022-11-20T03:52:51;93820.66;;;30.86;27.51
1926;BME280;964;42.606;23.588;2022-11-20T03:55:17;93822.91;;;30.48;28.09
1926;BME280;964;42.606;23.588;2022-11-20T03:57:44;93814.16;;;31.55;26.62
1926;BME280;964;42.606;23.588;2022-11-20T04:00:12;93796.03;;;31.19;26.70
1926;BME280;964;42.606;23.588;2022-11-20T04:02:39;93796.06;;;30.63;27.45
1926;BME280;964;42.606;23.588;2022-11-20T04:05:06;93800.78;;;31.13;28.20
1926;BME280;964;42.606;23.588;2022-11-20T04:07:35;93806.44;;;30.37;27.97
1926;BME280;964;42.606;23.588;2022-11-20T04:10:02;93816.56;;;29.55;28.65
1926;BME280;964;42.606;23.588;2022-11-20T04:12:31;93803.00;;;30.64;27.82
1926;BME280;964;42.606;23.588;2022-11-20T04:14:58;93803.94;;;30.39;27.64
1926;BME280;964;42.606;23.588;2022-11-20T04:17:25;93814.13;;;30.33;28.06
1926;BME280;964;42.606;23.588;2022-11-20T04:19:52;93812.09;;;31.78;26.33
1926;BME280;964;42.606;23.588;2022-11-20T04:22:18;93815.97;;;31.03;26.89
1926;BME280;964;42.606;23.588;2022-11-20T04:24:46;93816.44;;;31.29;27.11
1926;BME280;964;42.606;23.588;2022-11-20T04:27:13;93820.38;;;31.56;26.61
1926;BME280;964;42.606;23.588;2022-11-20T04:29:39;93815.34;;;31.77;27.21
1926;BME280;964;42.606;23.588;2022-11-20T04:32:06;93820.66;;;30.47;27.50
1926;BME280;964;42.606;23.588;2022-11-20T04:34:33;93811.44;;;30.44;27.98
1926;BME280;964;42.606;23.588;2022-11-20T04:37:00;93822.44;;;31.22;26.83
1926;BME280;964;42.606;23.588;2022-11-20T04:39:26;93830.41;;;31.09;27.46
1926;BME280;964;42.606;23.588;2022-11-20T04:41:54;93816.84;;;31.72;26.42
1926;BME280;964;42.606;23.588;2022-11-20T04:44:35;93834.06;;;31.45;27.34
1926;BME280;964;42.606;23.588;2022-11-20T04:47:01;93832.38;;;31.25;27.60
1926;BME280;964;42.606;23.588;2022-11-20T04:49:28;93835.59;;;30.85;28.05
1926;BME280;964;42.606;23.588;2022-11-20T04:51:56;93835.34;;;30.94;27.62
1926;BME280;964;42.606;23.588;2022-11-20T04:54:23;93821.25;;;31.92;26.69
1926;BME280;964;42.606;23.588;2022-11-20T04:56:50;93822.31;;;31.78;26.80
1926;BME280;964;42.606;23.588;2022-11-20T04:59:18;93810.53;;;31.94;26.54
1926;BME280;964;42.606;23.588;2022-11-20T05:01:45;93829.09;;;31.43;27.84
1926;BME280;964;42.606;23.588;2022-11-20T05:04:11;93820.09;;;30.26;29.05
1926;BME280;964;42.606;23.588;2022-11-20T05:06:38;93817.69;;;30.78;28.24
1926;BME280;964;42.606;23.588;2022-11-20T05:09:05;93835.56;;;29.02;31.19
1926;BME280;964;42.606;23.588;2022-11-20T05:11:31;93827.31;;;30.29;30.25
1926;BME280;964;42.606;23.588;2022-11-20T05:13:58;93828.66;;;29.91;30.75
1926;BME280;964;42.606;23.588;2022-11-20T05:16:27;93824.53;;;30.12;30.96
1926;BME280;964;42.606;23.588;2022-11-20T05:18:54;93825.88;;;30.61;29.99
1926;BME280;964;42.606;23.588;2022-11-20T05:21:21;93822.34;;;30.33;30.82
1926;BME280;964;42.606;23.588;2022-11-20T05:23:48;93842.19;;;30.28;31.66
1926;BME280;964;42.606;23.588;2022-11-20T05:26:16;93844.72;;;30.37;31.48
1926;BME280;964;42.606;23.588;2022-11-20T05:28:43;93847.16;;;30.24;32.01
1926;BME280;964;42.606;23.588;2022-11-20T05:31:12;93837.94;;;29.62;32.98
1926;BME280;964;42.606;23.588;2022-11-20T05:33:41;93816.75;;;29.89;34.17
1926;BME280;964;42.606;23.588;2022-11-20T05:36:08;93823.75;;;29.16;34.24
1926;BME280;964;42.606;23.588;2022-11-20T05:38:35;93829.94;;;28.80;35.30
1926;BME280;964;42.606;23.588;2022-11-20T05:41:05;93822.50;;;29.48;33.74
1926;BME280;964;42.606;23.588;2022-11-20T05:43:33;93841.25;;;29.78;33.22
1926;BME280;964;42.606;23.588;2022-11-20T05:46:00;93840.75;;;29.31;33.90
1926;BME280;964;42.606;23.588;2022-11-20T05:48:27;93850.81;;;29.19;35.30
1926;BME280;964;42.606;23.588;2022-11-20T05:50:56;93837.88;;;29.46;35.12
1926;BME280;964;42.606;23.588;2022-11-20T05:53:23;93834.75;;;28.64;36.26
1926;BME280;964;42.606;23.588;2022-11-20T05:55:56;93842.66;;;28.62;35.98
1926;BME280;964;42.606;23.588;2022-11-20T05:58:23;93845.00;;;29.32;34.25
1926;BME280;964;42.606;23.588;2022-11-20T06:00:50;93850.25;;;28.79;34.94
1926;BME280;964;42.606;23.588;2022-11-20T06:03:17;93834.38;;;29.08;34.19
1926;BME280;964;42.606;23.588;2022-11-20T06:05:43;93843.63;;;29.22;34.44
1926;BME280;964;42.606;23.588;2022-11-20T06:08:11;93846.34;;;29.53;33.07
1926;BME280;964;42.606;23.588;2022-11-20T06:10:38;93840.44;;;29.60;33.19
1926;BME280;964;42.606;23.588;2022-11-20T06:13:05;93855.94;;;29.38;33.70
1926;BME280;964;42.606;23.588;2022-11-20T06:15:31;93858.31;;;28.42;34.58
1926;BME280;964;42.606;23.588;2022-11-20T06:17:58;93843.84;;;28.82;34.41
1926;BME280;964;42.606;23.588;2022-11-20T06:20:25;93838.81;;;28.23;34.94
1926;BME280;964;42.606;23.588;2022-11-20T06:22:51;93823.94;;;29.38;33.07
1926;BME280;964;42.606;23.588;2022-11-20T06:25:19;93826.53;;;28.85;33.15
1926;BME280;964;42.606;23.588;2022-11-20T06:27:46;93819.13;;;28.65;34.41
1926;BME280;964;42.606;23.588;2022-11-20T06:30:13;93842.81;;;27.87;34.62
1926;BME280;964;42.606;23.588;2022-11-20T06:32:40;93819.47;;;28.72;33.99
1926;BME280;964;42.606;23.588;2022-11-20T06:35:07;93818.53;;;29.49;32.46
1926;BME280;964;42.606;23.588;2022-11-20T06:37:34;93825.78;;;29.58;32.15
1926;BME280;964;42.606;23.588;2022-11-20T06:40:01;93837.28;;;29.31;32.29
1926;BME280;964;42.606;23.588;2022-11-20T06:42:29;93832.66;;;29.11;32.77
1926;BME280;964;42.606;23.588;2022-11-20T06:44:56;93838.63;;;29.46;32.41
1926;BME280;964;42.606;23.588;2022-11-20T06:47:23;93844.56;;;29.45;32.20
1926;BME280;964;42.606;23.588;2022-11-20T06:49:50;93848.84;;;30.10;31.70
1926;BME280;964;42.606;23.588;2022-11-20T06:52:16;93841.16;;;30.09;31.74
1926;BME280;964;42.606;23.588;2022-11-20T06:54:43;93832.25;;;30.20;31.51
1926;BME280;964;42.606;23.588;2022-11-20T06:57:10;93833.72;;;30.15;31.36
1926;BME280;964;42.606;23.588;2022-11-20T06:59:38;93835.72;;;30.09;31.87
1926;BME280;964;42.606;23.588;2022-11-20T07:02:04;93829.16;;;29.90;32.60
1926;BME280;964;42.606;23.588;2022-11-20T07:04:31;93834.13;;;29.86;32.33
1926;BME280;964;42.606;23.588;2022-11-20T07:06:58;93851.03;;;29.47;32.23
1926;BME280;964;42.606;23.588;2022-11-20T07:09:24;93837.63;;;29.92;31.62
1926;BME280;964;42.606;23.588;2022-11-20T07:11:51;93835.63;;;29.87;31.84
1926;BME280;964;42.606;23.588;2022-11-20T07:14:18;93839.44;;;29.63;32.19
1926;BME280;964;42.606;23.588;2022-11-20T07:16:46;93834.84;;;29.38;32.59
1926;BME280;964;42.606;23.588;2022-11-20T07:19:12;93839.59;;;29.86;31.90
1926;BME280;964;42.606;23.588;2022-11-20T07:21:39;93831.09;;;30.48;30.97
1926;BME280;964;42.606;23.588;2022-11-20T07:24:06;93832.00;;;30.23;30.73
1926;BME280;964;42.606;23.588;2022-11-20T07:26:32;93832.59;;;30.60;29.62
1926;BME280;964;42.606;23.588;2022-11-20T07:28:59;93827.63;;;30.48;30.05
1926;BME280;964;42.606;23.588;2022-11-20T07:31:26;93840.31;;;30.56;30.67
1926;BME280;964;42.606;23.588;2022-11-20T07:33:54;93834.03;;;30.39;30.51
1926;BME280;964;42.606;23.588;2022-11-20T07:36:21;93831.44;;;30.02;32.49
1926;BME280;964;42.606;23.588;2022-11-20T07:38:48;93832.47;;;30.05;32.27
1926;BME280;964;42.606;23.588;2022-11-20T07:41:14;93840.03;;;30.43;32.03
1926;BME280;964;42.606;23.588;2022-11-20T07:43:41;93843.94;;;30.31;32.49
1926;BME280;964;42.606;23.588;2022-11-20T07:46:08;93840.06;;;30.60;31.76
1926;BME280;964;42.606;23.588;2022-11-20T07:48:34;93827.16;;;31.16;31.18
1926;BME280;964;42.606;23.588;2022-11-20T07:51:03;93830.66;;;32.13;29.96
1926;BME280;964;42.606;23.588;2022-11-20T07:53:29;93835.91;;;32.05;30.23
1926;BME280;964;42.606;23.588;2022-11-20T07:55:59;93851.75;;;30.72;31.15
1926;BME280;964;42.606;23.588;2022-11-20T07:58:26;93860.75;;;31.11;31.88
1926;BME280;964;42.606;23.588;2022-11-20T08:00:53;93859.94;;;30.55;32.24
1926;BME280;964;42.606;23.588;2022-11-20T08:03:19;93860.19;;;30.51;32.33
1926;BME280;964;42.606;23.588;2022-11-20T08:05:46;93855.00;;;30.87;31.50
1926;BME280;964;42.606;23.588;2022-11-20T08:08:14;93860.22;;;30.85;32.21
1926;BME280;964;42.606;23.588;2022-11-20T08:10:41;93866.25;;;30.02;32.76
1926;BME280;964;42.606;23.588;2022-11-20T08:13:08;93852.72;;;30.57;32.57
1926;BME280;964;42.606;23.588;2022-11-20T08:15:52;93862.50;;;31.14;31.54
1926;BME280;964;42.606;23.588;2022-11-20T08:18:19;93872.13;;;30.59;32.35
1926;BME280;964;42.606;23.588;2022-11-20T08:20:46;93858.63;;;32.52;30.10
1926;BME280;964;42.606;23.588;2022-11-20T08:23:14;93873.88;;;30.62;31.89
1926;BME280;964;42.606;23.588;2022-11-20T08:25:40;93873.59;;;30.49;32.58
1926;BME280;964;42.606;23.588;2022-11-20T08:28:09;93864.47;;;29.99;33.03
1926;BME280;964;42.606;23.588;2022-11-20T08:30:36;93852.56;;;30.02;32.85
1926;BME280;964;42.606;23.588;2022-11-20T08:33:04;93843.56;;;30.66;32.11
1926;BME280;964;42.606;23.588;2022-11-20T08:35:33;93840.81;;;31.38;31.40
1926;BME280;964;42.606;23.588;2022-11-20T08:38:00;93843.81;;;30.85;32.41
1926;BME280;964;42.606;23.588;2022-11-20T08:40:28;93849.06;;;30.99;32.22
1926;BME280;964;42.606;23.588;2022-11-20T08:42:55;93828.63;;;31.28;31.23
1926;BME280;964;42.606;23.588;2022-11-20T08:45:22;93833.59;;;31.46;30.46
1926;BME280;964;42.606;23.588;2022-11-20T08:47:49;93840.69;;;30.16;31.95
1926;BME280;964;42.606;23.588;2022-11-20T08:50:16;93834.63;;;31.16;31.81
1926;BME280;964;42.606;23.588;2022-11-20T08:52:44;93838.13;;;31.10;31.68
1926;BME280;964;42.606;23.588;2022-11-20T08:55:11;93833.31;;;31.44;31.60
1926;BME280;964;42.606;23.588;2022-11-20T08:57:39;93842.69;;;30.21;33.21
1926;BME280;964;42.606;23.588;2022-11-20T09:00:07;93844.19;;;30.28;33.26
1926;BME280;964;42.606;23.588;2022-11-20T09:02:34;93838.63;;;31.03;32.55
1926;BME280;964;42.606;23.588;2022-11-20T09:05:01;93848.81;;;32.22;31.90
1926;BME280;964;42.606;23.588;2022-11-20T09:07:28;93860.31;;;32.67;30.77
1926;BME280;964;42.606;23.588;2022-11-20T09:09:55;93872.94;;;32.29;32.39
1926;BME280;964;42.606;23.588;2022-11-20T09:12:22;93871.31;;;32.55;32.61
1926;BME280;964;42.606;23.588;2022-11-20T09:14:50;93869.44;;;31.37;32.27
1926;BME280;964;42.606;23.588;2022-11-20T09:17:17;93865.53;;;32.18;31.39
1926;BME280;964;42.606;23.588;2022-11-20T09:19:44;93863.72;;;31.24;33.05
1926;BME280;964;42.606;23.588;2022-11-20T09:22:11;93879.28;;;29.44;34.88
1926;BME280;964;42.606;23.588;2022-11-20T09:24:37;93858.22;;;31.63;32.88
1926;BME280;964;42.606;23.588;2022-11-20T09:27:04;93861.13;;;31.93;31.71
1926;BME280;964;42.606;23.588;2022-11-20T09:29:31;93861.63;;;32.49;31.11
1926;BME280;964;42.606;23.588;2022-11-20T09:31:59;93864.56;;;32.10;32.19
1926;BME280;964;42.606;23.588;2022-11-20T09:34:26;93880.91;;;31.25;33.96
1926;BME280;964;42.606;23.588;2022-11-20T09:36:53;93880.81;;;31.91;32.74
1926;BME280;964;42.606;23.588;2022-11-20T09:39:19;93876.97;;;32.22;32.79
1926;BME280;964;42.606;23.588;2022-11-20T09:41:59;93868.25;;;32.24;33.04
1926;BME280;964;42.606;23.588;2022-11-20T09:44:39;93859.38;;;32.47;32.82
1926;BME280;964;42.606;23.588;2022-11-20T09:47:16;93857.16;;;32.87;32.24
1926;BME280;964;42.606;23.588;2022-11-20T09:49:58;93843.88;;;33.26;31.51
1926;BME280;964;42.606;23.588;2022-11-20T09:52:34;93845.56;;;33.35;31.21
1926;BME280;964;42.606;23.588;2022-11-20T09:55:09;93866.66;;;32.39;32.52
1926;BME280;964;42.606;23.588;2022-11-20T09:57:39;93877.09;;;31.78;33.47
1926;BME280;964;42.606;23.588;2022-11-20T10:00:10;93877.63;;;31.71;33.46
1926;BME280;964;42.606;23.588;2022-11-20T10:02:42;93886.63;;;31.21;34.68
1926;BME280;964;42.606;23.588;2022-11-20T10:05:14;93884.13;;;31.45;34.54
1926;BME280;964;42.606;23.588;2022-11-20T10:07:44;93888.47;;;30.37;35.98
1926;BME280;964;42.606;23.588;2022-11-20T10:10:15;93881.56;;;30.47;35.58
1926;BME280;964;42.606;23.588;2022-11-20T10:12:54;93862.00;;;31.04;35.18
1926;BME280;964;42.606;23.588;2022-11-20T10:15:31;93882.66;;;28.97;38.69
1926;BME280;964;42.606;23.588;2022-11-20T10:18:20;93892.16;;;29.81;37.03
1926;BME280;964;42.606;23.588;2022-11-20T10:20:55;93877.59;;;30.48;36.17
1926;BME280;964;42.606;23.588;2022-11-20T10:23:33;93868.88;;;30.44;36.32
1926;BME280;964;42.606;23.588;2022-11-20T10:26:17;93872.06;;;30.37;36.40
1926;BME280;964;42.606;23.588;2022-11-20T10:28:54;93874.38;;;30.72;35.79
1926;BME280;964;42.606;23.588;2022-11-20T10:31:28;93876.03;;;30.36;36.53
1926;BME280;964;42.606;23.588;2022-11-20T10:34:00;93865.22;;;29.94;37.18
1926;BME280;964;42.606;23.588;2022-11-20T10:36:34;93853.47;;;30.58;36.33
1926;BME280;964;42.606;23.588;2022-11-20T10:39:06;93847.22;;;30.41;36.88
1926;BME280;964;42.606;23.588;2022-11-20T10:41:38;93841.06;;;30.85;35.86
1926;BME280;964;42.606;23.588;2022-11-20T10:44:14;93836.25;;;30.35;36.73
1926;BME280;964;42.606;23.588;2022-11-20T10:47:02;93845.34;;;29.51;38.06
1926;BME280;964;42.606;23.588;2022-11-20T10:49:32;93855.88;;;29.69;37.71
1926;BME280;964;42.606;23.588;2022-11-20T10:52:05;93847.50;;;30.54;36.30
1926;BME280;964;42.606;23.588;2022-11-20T10:54:41;93836.53;;;30.43;36.36
1926;BME280;964;42.606;23.588;2022-11-20T10:57:20;93835.50;;;29.64;37.66
1926;BME280;964;42.606;23.588;2022-11-20T11:00:00;93844.69;;;28.16;40.54
1926;BME280;964;42.606;23.588;2022-11-20T11:02:34;93835.44;;;30.01;37.28
1926;BME280;964;42.606;23.588;2022-11-20T11:05:11;93827.75;;;30.11;37.00
1926;BME280;964;42.606;23.588;2022-11-20T11:07:40;93828.13;;;29.34;37.79
1926;BME280;964;42.606;23.588;2022-11-20T11:10:15;93816.94;;;30.78;36.17
1926;BME280;964;42.606;23.588;2022-11-20T11:12:44;93813.44;;;30.94;35.44
1926;BME280;964;42.606;23.588;2022-11-20T11:15:14;93802.78;;;31.12;35.19
1926;BME280;964;42.606;23.588;2022-11-20T11:17:46;93822.44;;;31.00;35.48
1926;BME280;964;42.606;23.588;2022-11-20T11:20:18;93829.88;;;30.83;35.59
1926;BME280;964;42.606;23.588;2022-11-20T11:22:47;93838.59;;;30.98;35.25
1926;BME280;964;42.606;23.588;2022-11-20T11:25:26;93846.31;;;31.05;35.21
1926;BME280;964;42.606;23.588;2022-11-20T11:27:55;93847.03;;;30.67;35.50
1926;BME280;964;42.606;23.588;2022-11-20T11:30:24;93866.59;;;30.37;35.88
1926;BME280;964;42.606;23.588;2022-11-20T11:33:02;93857.22;;;30.83;35.64
1926;BME280;964;42.606;23.588;2022-11-20T11:35:31;93862.88;;;30.40;36.07
1926;BME280;964;42.606;23.588;2022-11-20T11:38:04;93866.88;;;30.45;36.10
1926;BME280;964;42.606;23.588;2022-11-20T11:40:34;93886.13;;;29.65;37.53
1926;BME280;964;42.606;23.588;2022-11-20T11:43:05;93896.78;;;29.63;37.83
1926;BME280;964;42.606;23.588;2022-11-20T11:45:53;93900.41;;;28.87;39.75
1926;BME280;964;42.606;23.588;2022-11-20T11:48:20;93906.31;;;29.11;38.98
1926;BME280;964;42.606;23.588;2022-11-20T11:50:50;93907.06;;;29.11;39.54
1926;BME280;964;42.606;23.588;2022-11-20T11:53:18;93928.88;;;28.80;40.08
1926;BME280;964;42.606;23.588;2022-11-20T11:55:49;93956.59;;;28.99;39.99
1926;BME280;964;42.606;23.588;2022-11-20T11:58:32;93965.16;;;28.66;40.89
1926;BME280;964;42.606;23.588;2022-11-20T12:01:04;93951.19;;;28.58;41.01
1926;BME280;964;42.606;23.588;2022-11-20T12:03:36;93921.06;;;29.50;39.31
1926;BME280;964;42.606;23.588;2022-11-20T12:06:10;93894.13;;;29.75;38.80
1926;BME280;964;42.606;23.588;2022-11-20T12:08:43;93892.78;;;29.96;38.76
1926;BME280;964;42.606;23.588;2022-11-20T12:11:14;93893.13;;;30.20;38.32
1926;BME280;964;42.606;23.588;2022-11-20T12:13:48;93893.38;;;29.74;38.79
1926;BME280;964;42.606;23.588;2022-11-20T12:16:19;93881.47;;;30.25;38.23
1926;BME280;964;42.606;23.588;2022-11-20T12:18:48;93888.78;;;30.56;37.80
1926;BME280;964;42.606;23.588;2022-11-20T12:21:26;93893.84;;;30.15;38.04
1926;BME280;964;42.606;23.588;2022-11-20T12:24:13;93883.81;;;30.49;37.77
1926;BME280;964;42.606;23.588;2022-11-20T12:26:57;93886.13;;;30.13;38.01
1926;BME280;964;42.606;23.588;2022-11-20T12:29:38;93881.28;;;28.81;39.82
1926;BME280;964;42.606;23.588;2022-11-20T12:32:41;93891.25;;;27.98;38.47
1926;BME280;964;42.606;23.588;2022-11-20T12:35:28;93869.94;;;28.88;37.16
1926;BME280;964;42.606;23.588;2022-11-20T12:38:15;93889.59;;;28.98;37.88
1926;BME280;964;42.606;23.588;2022-11-20T12:40:53;93905.28;;;29.03;38.94
1926;BME280;964;42.606;23.588;2022-11-20T12:43:24;93914.81;;;28.01;37.36
1926;BME280;964;42.606;23.588;2022-11-20T12:46:18;93913.72;;;25.78;41.25
1926;BME280;964;42.606;23.588;2022-11-20T12:48:56;93895.13;;;25.86;41.46
1926;BME280;964;42.606;23.588;2022-11-20T12:51:47;93867.63;;;25.13;42.19
1926;BME280;964;42.606;23.588;2022-11-20T12:54:42;93867.16;;;27.36;39.25
1926;BME280;964;42.606;23.588;2022-11-20T12:57:18;93870.19;;;26.64;40.25
1926;BME280;964;42.606;23.588;2022-11-20T13:00:03;93855.28;;;26.60;40.57
1926;BME280;964;42.606;23.588;2022-11-20T13:02:41;93845.63;;;27.03;39.21
1926;BME280;964;42.606;23.588;2022-11-20T13:05:18;93831.00;;;28.10;37.76
1926;BME280;964;42.606;23.588;2022-11-20T13:07:47;93819.25;;;28.50;36.98
1926;BME280;964;42.606;23.588;2022-11-20T13:10:18;93827.25;;;26.98;40.22
1926;BME280;964;42.606;23.588;2022-11-20T13:12:50;93842.81;;;26.68;40.64
1926;BME280;964;42.606;23.588;2022-11-20T13:15:42;93845.44;;;26.33;41.17
1926;BME280;964;42.606;23.588;2022-11-20T13:18:11;93848.25;;;26.39;41.35
1926;BME280;964;42.606;23.588;2022-11-20T13:20:43;93848.41;;;25.58;42.90
1926;BME280;964;42.606;23.588;2022-11-20T13:23:10;93849.63;;;25.24;44.24
1926;BME280;964;42.606;23.588;2022-11-20T13:25:39;93825.44;;;25.12;44.42
1926;BME280;964;42.606;23.588;2022-11-20T13:28:26;93813.88;;;24.60;45.18
1926;BME280;964;42.606;23.588;2022-11-20T13:30:54;93803.53;;;25.24;43.72
1926;BME280;964;42.606;23.588;2022-11-20T13:33:25;93805.16;;;25.78;43.25
1926;BME280;964;42.606;23.588;2022-11-20T13:35:56;93809.91;;;26.80;41.65